sensor_id;sensor_type;location;lat;lon;timestamp;P1;durP1;ratioP1;P2;durP2;ratioP2
8663;SDS011;4369;47.842;13.096;2024-01-15T00:00:14;12.03;;;8.03;;
8663;SDS011;4369;47.842;13.096;2024-01-15T00:02:43;9.70;;;7.73;;
8663;SDS011;4369;47.842;13.096;2024-01-15T00:05:10;11.57;;;7.90;;
8663;SDS011;4369;47.842;13.096;2024-01-15T00:07:38;12.87;;;7.40;;
8663;SDS011;4369;47.842;13.096;2024-01-15T00:10:05;13.13;;;7.67;;
8663;SDS011;4369;47.842;13.096;2024-01-15T00:12:32;9.80;;;6.87;;
8663;SDS011;4369;47.842;13.096;2024-01-15T00:14:59;10.93;;;7.87;;
8663;SDS011;4369;47.842;13.096;2024-01-15T00:17:26;8.43;;;6.37;;
8663;SDS011;4369;47.842;13.096;2024-01-15T00:19:54;9.70;;;6.87;;
8663;SDS011;4369;47.842;13.096;2024-01-15T00:22:21;9.37;;;6.50;;
8663;SDS011;4369;47.842;13.096;2024-01-15T00:24:49;8.60;;;5.57;;
8663;SDS011;4369;47.842;13.096;2024-01-15T00:27:16;10.10;;;7.10;;
8663;SDS011;4369;47.842;13.096;2024-01-15T00:29:43;8.53;;;6.50;;
8663;SDS011;4369;47.842;13.096;2024-01-15T00:32:10;10.60;;;8.10;;
8663;SDS011;4369;47.842;13.096;2024-01-15T00:34:37;13.63;;;8.73;;
8663;SDS011;4369;47.842;13.096;2024-01-15T00:37:05;11.30;;;7.97;;
8663;SDS011;4369;47.842;13.096;2024-01-15T00:39:32;11.60;;;8.60;;
8663;SDS011;4369;47.842;13.096;2024-01-15T00:41:59;13.27;;;8.63;;
8663;SDS011;4369;47.842;13.096;2024-01-15T00:44:26;11.90;;;8.20;;
8663;SDS011;4369;47.842;13.096;2024-01-15T00:46:53;12.60;;;8.70;;
8663;SDS011;4369;47.842;13.096;2024-01-15T00:49:20;11.67;;;7.73;;
8663;SDS011;4369;47.842;13.096;2024-01-15T00:51:47;13.23;;;8.03;;
8663;SDS011;4369;47.842;13.096;2024-01-15T00:54:16;12.30;;;7.73;;
8663;SDS011;4369;47.842;13.096;2024-01-15T00:56:43;8.60;;;6.90;;
8663;SDS011;4369;47.842;13.096;2024-01-15T00:59:10;11.70;;;7.90;;
8663;SDS011;4369;47.842;13.096;2024-01-15T01:01:39;11.40;;;8.40;;
8663;SDS011;4369;47.842;13.096;2024-01-15T01:04:08;12.87;;;8.23;;
8663;SDS011;4369;47.842;13.096;2024-01-15T01:06:35;13.07;;;9.23;;
8663;SDS011;4369;47.842;13.096;2024-01-15T01:09:02;13.90;;;8.93;;
8663;SDS011;4369;47.842;13.096;2024-01-15T01:11:30;12.47;;;7.60;;
8663;SDS011;4369;47.842;13.096;2024-01-15T01:13:57;13.10;;;8.07;;
8663;SDS011;4369;47.842;13.096;2024-01-15T01:16:25;13.00;;;7.63;;
8663;SDS011;4369;47.842;13.096;2024-01-15T01:18:52;11.67;;;8.43;;
8663;SDS011;4369;47.842;13.096;2024-01-15T01:21:19;10.93;;;7.87;;
8663;SDS011;4369;47.842;13.096;2024-01-15T01:23:46;11.70;;;7.43;;
8663;SDS011;4369;47.842;13.096;2024-01-15T01:26:15;10.03;;;6.23;;
8663;SDS011;4369;47.842;13.096;2024-01-15T01:28:43;11.53;;;7.50;;
8663;SDS011;4369;47.842;13.096;2024-01-15T01:31:10;8.43;;;6.40;;
8663;SDS011;4369;47.842;13.096;2024-01-15T01:33:38;9.63;;;6.73;;
8663;SDS011;4369;47.842;13.096;2024-01-15T01:36:06;12.57;;;7.10;;
8663;SDS011;4369;47.842;13.096;2024-01-15T01:38:34;5.40;;;4.63;;
8663;SDS011;4369;47.842;13.096;2024-01-15T01:41:01;5.93;;;4.80;;
8663;SDS011;4369;47.842;13.096;2024-01-15T01:43:28;11.33;;;5.27;;
8663;SDS011;4369;47.842;13.096;2024-01-15T01:45:57;7.27;;;5.13;;
8663;SDS011;4369;47.842;13.096;2024-01-15T01:48:24;6.50;;;4.80;;
8663;SDS011;4369;47.842;13.096;2024-01-15T01:50:52;6.43;;;4.37;;
8663;SDS011;4369;47.842;13.096;2024-01-15T01:53:20;5.77;;;4.10;;
8663;SDS011;4369;47.842;13.096;2024-01-15T01:55:48;4.70;;;4.00;;
8663;SDS011;4369;47.842;13.096;2024-01-15T01:58:16;4.30;;;3.90;;
8663;SDS011;4369;47.842;13.096;2024-01-15T02:00:43;6.77;;;4.80;;
8663;SDS011;4369;47.842;13.096;2024-01-15T02:03:12;5.40;;;4.30;;
8663;SDS011;4369;47.842;13.096;2024-01-15T02:05:39;5.73;;;4.17;;
8663;SDS011;4369;47.842;13.096;2024-01-15T02:08:06;4.20;;;3.80;;
8663;SDS011;4369;47.842;13.096;2024-01-15T02:10:34;4.97;;;4.33;;
8663;SDS011;4369;47.842;13.096;2024-01-15T02:13:01;4.87;;;4.03;;
8663;SDS011;4369;47.842;13.096;2024-01-15T02:15:28;5.37;;;4.37;;
8663;SDS011;4369;47.842;13.096;2024-01-15T02:17:56;4.67;;;3.73;;
8663;SDS011;4369;47.842;13.096;2024-01-15T02:20:25;5.73;;;4.43;;
8663;SDS011;4369;47.842;13.096;2024-01-15T02:22:52;5.73;;;4.93;;
8663;SDS011;4369;47.842;13.096;2024-01-15T02:25:21;6.97;;;5.07;;
8663;SDS011;4369;47.842;13.096;2024-01-15T02:27:48;6.70;;;4.37;;
8663;SDS011;4369;47.842;13.096;2024-01-15T02:30:15;6.40;;;5.13;;
8663;SDS011;4369;47.842;13.096;2024-01-15T02:32:43;7.53;;;5.10;;
8663;SDS011;4369;47.842;13.096;2024-01-15T02:35:10;9.73;;;6.20;;
8663;SDS011;4369;47.842;13.096;2024-01-15T02:37:37;8.27;;;6.27;;
8663;SDS011;4369;47.842;13.096;2024-01-15T02:40:04;8.37;;;6.10;;
8663;SDS011;4369;47.842;13.096;2024-01-15T02:42:33;10.60;;;6.77;;
8663;SDS011;4369;47.842;13.096;2024-01-15T02:45:00;10.10;;;6.33;;
8663;SDS011;4369;47.842;13.096;2024-01-15T02:47:26;9.50;;;6.60;;
8663;SDS011;4369;47.842;13.096;2024-01-15T02:49:53;9.37;;;6.87;;
8663;SDS011;4369;47.842;13.096;2024-01-15T02:52:20;9.43;;;6.57;;
8663;SDS011;4369;47.842;13.096;2024-01-15T02:54:47;8.83;;;6.53;;
8663;SDS011;4369;47.842;13.096;2024-01-15T02:57:14;10.93;;;7.43;;
8663;SDS011;4369;47.842;13.096;2024-01-15T02:59:42;10.83;;;7.47;;
8663;SDS011;4369;47.842;13.096;2024-01-15T03:02:09;8.80;;;6.90;;
8663;SDS011;4369;47.842;13.096;2024-01-15T03:04:36;12.23;;;7.80;;
8663;SDS011;4369;47.842;13.096;2024-01-15T03:07:03;12.27;;;7.53;;
8663;SDS011;4369;47.842;13.096;2024-01-15T03:09:30;9.80;;;7.37;;
8663;SDS011;4369;47.842;13.096;2024-01-15T03:11:57;12.37;;;8.37;;
8663;SDS011;4369;47.842;13.096;2024-01-15T03:14:24;13.00;;;8.23;;
8663;SDS011;4369;47.842;13.096;2024-01-15T03:16:52;12.30;;;7.73;;
8663;SDS011;4369;47.842;13.096;2024-01-15T03:19:19;13.67;;;8.87;;
8663;SDS011;4369;47.842;13.096;2024-01-15T03:21:46;12.20;;;8.10;;
8663;SDS011;4369;47.842;13.096;2024-01-15T03:24:13;12.27;;;8.07;;
8663;SDS011;4369;47.842;13.096;2024-01-15T03:26:40;17.13;;;9.13;;
8663;SDS011;4369;47.842;13.096;2024-01-15T03:29:07;14.20;;;8.60;;
8663;SDS011;4369;47.842;13.096;2024-01-15T03:31:34;12.77;;;8.40;;
8663;SDS011;4369;47.842;13.096;2024-01-15T03:34:03;14.33;;;8.87;;
8663;SDS011;4369;47.842;13.096;2024-01-15T03:36:29;11.80;;;8.00;;
8663;SDS011;4369;47.842;13.096;2024-01-15T03:38:55;11.90;;;7.87;;
8663;SDS011;4369;47.842;13.096;2024-01-15T03:41:22;11.33;;;7.47;;
8663;SDS011;4369;47.842;13.096;2024-01-15T03:43:49;13.07;;;8.80;;
8663;SDS011;4369;47.842;13.096;2024-01-15T03:46:16;15.30;;;8.80;;
8663;SDS011;4369;47.842;13.096;2024-01-15T03:48:43;14.40;;;9.03;;
8663;SDS011;4369;47.842;13.096;2024-01-15T03:51:11;13.90;;;8.77;;
8663;SDS011;4369;47.842;13.096;2024-01-15T03:53:38;14.13;;;8.80;;
8663;SDS011;4369;47.842;13.096;2024-01-15T03:56:05;12.37;;;8.17;;
8663;SDS011;4369;47.842;13.096;2024-01-15T03:58:32;13.53;;;8.40;;
8663;SDS011;4369;47.842;13.096;2024-01-15T04:00:59;12.20;;;8.13;;
8663;SDS011;4369;47.842;13.096;2024-01-15T04:03:26;15.80;;;9.73;;
8663;SDS011;4369;47.842;13.096;2024-01-15T04:05:53;12.33;;;8.20;;
8663;SDS011;4369;47.842;13.096;2024-01-15T04:08:21;16.73;;;8.73;;
8663;SDS011;4369;47.842;13.096;2024-01-15T04:10:48;11.57;;;8.13;;
8663;SDS011;4369;47.842;13.096;2024-01-15T04:13:15;12.33;;;7.93;;
8663;SDS011;4369;47.842;13.096;2024-01-15T04:15:42;11.93;;;7.80;;
8663;SDS011;4369;47.842;13.096;2024-01-15T04:18:09;16.67;;;8.97;;
8663;SDS011;4369;47.842;13.096;2024-01-15T04:20:36;12.93;;;8.30;;
8663;SDS011;4369;47.842;13.096;2024-01-15T04:23:04;11.60;;;7.77;;
8663;SDS011;4369;47.842;13.096;2024-01-15T04:25:32;12.83;;;8.37;;
8663;SDS011;4369;47.842;13.096;2024-01-15T04:27:59;15.13;;;8.77;;
8663;SDS011;4369;47.842;13.096;2024-01-15T04:30:26;13.43;;;7.83;;
8663;SDS011;4369;47.842;13.096;2024-01-15T04:32:53;13.90;;;8.13;;
8663;SDS011;4369;47.842;13.096;2024-01-15T04:35:20;11.10;;;8.07;;
8663;SDS011;4369;47.842;13.096;2024-01-15T04:37:47;17.00;;;8.50;;
8663;SDS011;4369;47.842;13.096;2024-01-15T04:40:14;14.33;;;8.37;;
8663;SDS011;4369;47.842;13.096;2024-01-15T04:42:42;13.07;;;8.53;;
8663;SDS011;4369;47.842;13.096;2024-01-15T04:45:10;16.10;;;8.67;;
8663;SDS011;4369;47.842;13.096;2024-01-15T04:47:38;15.40;;;9.13;;
8663;SDS011;4369;47.842;13.096;2024-01-15T04:50:05;12.90;;;8.83;;
8663;SDS011;4369;47.842;13.096;2024-01-15T04:52:32;14.10;;;8.40;;
8663;SDS011;4369;47.842;13.096;2024-01-15T04:54:59;12.67;;;8.43;;
8663;SDS011;4369;47.842;13.096;2024-01-15T04:57:26;13.73;;;7.97;;
8663;SDS011;4369;47.842;13.096;2024-01-15T04:59:54;12.77;;;8.60;;
8663;SDS011;4369;47.842;13.096;2024-01-15T05:02:21;16.40;;;8.67;;
8663;SDS011;4369;47.842;13.096;2024-01-15T05:04:48;13.67;;;8.77;;
8663;SDS011;4369;47.842;13.096;2024-01-15T05:07:15;11.80;;;7.57;;
8663;SDS011;4369;47.842;13.096;2024-01-15T05:09:42;10.67;;;7.30;;
8663;SDS011;4369;47.842;13.096;2024-01-15T05:12:09;11.53;;;7.37;;
8663;SDS011;4369;47.842;13.096;2024-01-15T05:14:36;11.80;;;7.03;;
8663;SDS011;4369;47.842;13.096;2024-01-15T05:17:05;9.27;;;7.17;;
8663;SDS011;4369;47.842;13.096;2024-01-15T05:19:32;10.80;;;6.83;;
8663;SDS011;4369;47.842;13.096;2024-01-15T05:21:59;11.30;;;7.20;;
8663;SDS011;4369;47.842;13.096;2024-01-15T05:24:26;11.13;;;6.63;;
8663;SDS011;4369;47.842;13.096;2024-01-15T05:26:53;9.23;;;5.90;;
8663;SDS011;4369;47.842;13.096;2024-01-15T05:29:20;11.37;;;6.53;;
8663;SDS011;4369;47.842;13.096;2024-01-15T05:31:47;10.10;;;6.20;;
8663;SDS011;4369;47.842;13.096;2024-01-15T05:34:15;9.13;;;5.77;;
8663;SDS011;4369;47.842;13.096;2024-01-15T05:36:42;9.73;;;6.30;;
8663;SDS011;4369;47.842;13.096;2024-01-15T05:39:09;8.37;;;5.40;;
8663;SDS011;4369;47.842;13.096;2024-01-15T05:41:36;7.27;;;5.00;;
8663;SDS011;4369;47.842;13.096;2024-01-15T05:44:03;8.43;;;5.20;;
8663;SDS011;4369;47.842;13.096;2024-01-15T05:46:30;9.73;;;5.70;;
8663;SDS011;4369;47.842;13.096;2024-01-15T05:48:57;8.87;;;4.90;;
8663;SDS011;4369;47.842;13.096;2024-01-15T05:51:25;9.07;;;5.43;;
8663;SDS011;4369;47.842;13.096;2024-01-15T05:53:52;9.67;;;5.87;;
8663;SDS011;4369;47.842;13.096;2024-01-15T05:56:19;7.63;;;4.57;;
8663;SDS011;4369;47.842;13.096;2024-01-15T05:58:46;7.50;;;5.20;;
8663;SDS011;4369;47.842;13.096;2024-01-15T06:01:13;7.03;;;5.20;;
8663;SDS011;4369;47.842;13.096;2024-01-15T06:03:40;7.07;;;4.80;;
8663;SDS011;4369;47.842;13.096;2024-01-15T06:06:08;8.67;;;5.33;;
8663;SDS011;4369;47.842;13.096;2024-01-15T06:08:37;7.00;;;5.37;;
8663;SDS011;4369;47.842;13.096;2024-01-15T06:11:04;7.27;;;5.17;;
8663;SDS011;4369;47.842;13.096;2024-01-15T06:13:31;8.37;;;4.93;;
8663;SDS011;4369;47.842;13.096;2024-01-15T06:15:58;8.17;;;5.40;;
8663;SDS011;4369;47.842;13.096;2024-01-15T06:18:25;6.57;;;4.80;;
8663;SDS011;4369;47.842;13.096;2024-01-15T06:20:52;8.30;;;4.90;;
8663;SDS011;4369;47.842;13.096;2024-01-15T06:23:19;6.40;;;4.57;;
8663;SDS011;4369;47.842;13.096;2024-01-15T06:25:47;7.03;;;5.10;;
8663;SDS011;4369;47.842;13.096;2024-01-15T06:28:15;6.67;;;4.47;;
8663;SDS011;4369;47.842;13.096;2024-01-15T06:30:42;7.87;;;4.60;;
8663;SDS011;4369;47.842;13.096;2024-01-15T06:33:08;6.33;;;4.67;;
8663;SDS011;4369;47.842;13.096;2024-01-15T06:35:36;6.73;;;4.60;;
8663;SDS011;4369;47.842;13.096;2024-01-15T06:38:03;6.60;;;4.77;;
8663;SDS011;4369;47.842;13.096;2024-01-15T06:40:30;6.63;;;3.93;;
8663;SDS011;4369;47.842;13.096;2024-01-15T06:42:58;7.37;;;4.70;;
8663;SDS011;4369;47.842;13.096;2024-01-15T06:45:25;5.63;;;4.27;;
8663;SDS011;4369;47.842;13.096;2024-01-15T06:47:52;8.73;;;5.20;;
8663;SDS011;4369;47.842;13.096;2024-01-15T06:50:22;6.13;;;4.43;;
8663;SDS011;4369;47.842;13.096;2024-01-15T06:52:49;6.27;;;3.97;;
8663;SDS011;4369;47.842;13.096;2024-01-15T06:55:16;5.57;;;3.90;;
8663;SDS011;4369;47.842;13.096;2024-01-15T06:57:43;7.27;;;4.77;;
8663;SDS011;4369;47.842;13.096;2024-01-15T07:00:12;9.60;;;6.20;;
8663;SDS011;4369;47.842;13.096;2024-01-15T07:02:40;7.27;;;3.90;;
8663;SDS011;4369;47.842;13.096;2024-01-15T07:05:07;7.17;;;4.70;;
8663;SDS011;4369;47.842;13.096;2024-01-15T07:07:34;7.60;;;4.93;;
8663;SDS011;4369;47.842;13.096;2024-01-15T07:10:01;6.23;;;4.53;;
8663;SDS011;4369;47.842;13.096;2024-01-15T07:12:29;3.57;;;3.00;;
8663;SDS011;4369;47.842;13.096;2024-01-15T07:14:56;7.10;;;4.20;;
8663;SDS011;4369;47.842;13.096;2024-01-15T07:17:25;6.43;;;3.80;;
8663;SDS011;4369;47.842;13.096;2024-01-15T07:19:52;5.33;;;3.83;;
8663;SDS011;4369;47.842;13.096;2024-01-15T07:22:19;4.20;;;2.93;;
8663;SDS011;4369;47.842;13.096;2024-01-15T07:24:45;4.23;;;2.93;;
8663;SDS011;4369;47.842;13.096;2024-01-15T07:27:12;4.17;;;3.10;;
8663;SDS011;4369;47.842;13.096;2024-01-15T07:29:39;3.63;;;2.87;;
8663;SDS011;4369;47.842;13.096;2024-01-15T07:32:07;3.83;;;2.83;;
8663;SDS011;4369;47.842;13.096;2024-01-15T07:34:36;6.27;;;3.30;;
8663;SDS011;4369;47.842;13.096;2024-01-15T07:37:04;5.27;;;3.30;;
8663;SDS011;4369;47.842;13.096;2024-01-15T07:39:31;4.00;;;3.23;;
8663;SDS011;4369;47.842;13.096;2024-01-15T07:41:59;4.50;;;3.00;;
8663;SDS011;4369;47.842;13.096;2024-01-15T07:44:27;3.90;;;3.23;;
8663;SDS011;4369;47.842;13.096;2024-01-15T07:46:53;5.13;;;3.07;;
8663;SDS011;4369;47.842;13.096;2024-01-15T07:49:21;4.17;;;3.07;;
8663;SDS011;4369;47.842;13.096;2024-01-15T07:51:50;4.10;;;3.10;;
8663;SDS011;4369;47.842;13.096;2024-01-15T07:54:17;3.83;;;3.43;;
8663;SDS011;4369;47.842;13.096;2024-01-15T07:56:53;5.20;;;3.00;;
8663;SDS011;4369;47.842;13.096;2024-01-15T07:59:20;3.50;;;3.10;;
8663;SDS011;4369;47.842;13.096;2024-01-15T08:01:47;3.20;;;2.90;;
8663;SDS011;4369;47.842;13.096;2024-01-15T08:04:15;6.37;;;3.40;;
8663;SDS011;4369;47.842;13.096;2024-01-15T08:06:42;4.10;;;3.70;;
8663;SDS011;4369;47.842;13.096;2024-01-15T08:09:11;4.97;;;3.47;;
8663;SDS011;4369;47.842;13.096;2024-01-15T08:11:39;5.73;;;3.60;;
8663;SDS011;4369;47.842;13.096;2024-01-15T08:14:07;4.17;;;3.33;;
8663;SDS011;4369;47.842;13.096;2024-01-15T08:16:34;4.00;;;3.60;;
8663;SDS011;4369;47.842;13.096;2024-01-15T08:19:01;4.87;;;3.60;;
8663;SDS011;4369;47.842;13.096;2024-01-15T08:21:28;4.80;;;3.60;;
8663;SDS011;4369;47.842;13.096;2024-01-15T08:23:57;4.80;;;4.10;;
8663;SDS011;4369;47.842;13.096;2024-01-15T08:26:25;4.87;;;3.60;;
8663;SDS011;4369;47.842;13.096;2024-01-15T08:28:52;5.43;;;3.97;;
8663;SDS011;4369;47.842;13.096;2024-01-15T08:31:19;4.73;;;3.30;;
8663;SDS011;4369;47.842;13.096;2024-01-15T08:33:46;4.83;;;3.87;;
8663;SDS011;4369;47.842;13.096;2024-01-15T08:36:13;4.30;;;3.10;;
8663;SDS011;4369;47.842;13.096;2024-01-15T08:38:40;4.27;;;3.37;;
8663;SDS011;4369;47.842;13.096;2024-01-15T08:41:07;6.10;;;3.70;;
8663;SDS011;4369;47.842;13.096;2024-01-15T08:43:36;4.27;;;3.37;;
8663;SDS011;4369;47.842;13.096;2024-01-15T08:46:03;4.40;;;3.20;;
8663;SDS011;4369;47.842;13.096;2024-01-15T08:48:30;4.77;;;3.73;;
8663;SDS011;4369;47.842;13.096;2024-01-15T08:50:57;4.30;;;3.30;;
8663;SDS011;4369;47.842;13.096;2024-01-15T08:53:24;4.47;;;3.20;;
8663;SDS011;4369;47.842;13.096;2024-01-15T08:55:52;5.37;;;3.63;;
8663;SDS011;4369;47.842;13.096;2024-01-15T08:58:19;4.43;;;3.17;;
8663;SDS011;4369;47.842;13.096;2024-01-15T09:00:47;4.27;;;3.37;;
8663;SDS011;4369;47.842;13.096;2024-01-15T09:03:15;5.33;;;3.30;;
8663;SDS011;4369;47.842;13.096;2024-01-15T09:05:43;7.17;;;4.00;;
8663;SDS011;4369;47.842;13.096;2024-01-15T09:08:10;5.63;;;3.73;;
8663;SDS011;4369;47.842;13.096;2024-01-15T09:10:38;4.23;;;3.27;;
8663;SDS011;4369;47.842;13.096;2024-01-15T09:13:05;4.30;;;2.93;;
8663;SDS011;4369;47.842;13.096;2024-01-15T09:15:33;4.10;;;3.67;;
8663;SDS011;4369;47.842;13.096;2024-01-15T09:18:01;4.70;;;3.47;;
8663;SDS011;4369;47.842;13.096;2024-01-15T09:20:30;4.33;;;3.33;;
8663;SDS011;4369;47.842;13.096;2024-01-15T09:22:57;4.10;;;3.70;;
8663;SDS011;4369;47.842;13.096;2024-01-15T09:25:25;4.57;;;3.53;;
8663;SDS011;4369;47.842;13.096;2024-01-15T09:27:52;6.23;;;3.90;;
8663;SDS011;4369;47.842;13.096;2024-01-15T09:30:19;6.27;;;4.00;;
8663;SDS011;4369;47.842;13.096;2024-01-15T09:32:46;5.73;;;3.93;;
8663;SDS011;4369;47.842;13.096;2024-01-15T09:35:15;5.47;;;4.00;;
8663;SDS011;4369;47.842;13.096;2024-01-15T09:37:42;7.20;;;4.80;;
8663;SDS011;4369;47.842;13.096;2024-01-15T09:40:09;7.13;;;4.40;;
8663;SDS011;4369;47.842;13.096;2024-01-15T09:42:40;6.97;;;4.50;;
8663;SDS011;4369;47.842;13.096;2024-01-15T09:45:08;5.77;;;4.30;;
8663;SDS011;4369;47.842;13.096;2024-01-15T09:47:36;5.73;;;4.17;;
8663;SDS011;4369;47.842;13.096;2024-01-15T09:50:03;6.00;;;4.40;;
8663;SDS011;4369;47.842;13.096;2024-01-15T09:52:33;8.57;;;4.53;;
8663;SDS011;4369;47.842;13.096;2024-01-15T09:55:01;5.93;;;4.80;;
8663;SDS011;4369;47.842;13.096;2024-01-15T09:57:30;5.53;;;4.07;;
8663;SDS011;4369;47.842;13.096;2024-01-15T09:59:57;5.13;;;4.10;;
8663;SDS011;4369;47.842;13.096;2024-01-15T10:02:29;5.83;;;4.57;;
8663;SDS011;4369;47.842;13.096;2024-01-15T10:04:56;7.57;;;4.50;;
8663;SDS011;4369;47.842;13.096;2024-01-15T10:07:23;6.33;;;4.77;;
8663;SDS011;4369;47.842;13.096;2024-01-15T10:09:54;7.10;;;4.73;;
8663;SDS011;4369;47.842;13.096;2024-01-15T10:12:21;8.03;;;4.90;;
8663;SDS011;4369;47.842;13.096;2024-01-15T10:14:50;8.17;;;5.07;;
8663;SDS011;4369;47.842;13.096;2024-01-15T10:17:17;8.13;;;4.97;;
8663;SDS011;4369;47.842;13.096;2024-01-15T10:19:44;7.93;;;5.07;;
8663;SDS011;4369;47.842;13.096;2024-01-15T10:22:13;8.43;;;5.30;;
8663;SDS011;4369;47.842;13.096;2024-01-15T10:24:42;7.13;;;4.80;;
8663;SDS011;4369;47.842;13.096;2024-01-15T10:27:10;7.33;;;4.53;;
8663;SDS011;4369;47.842;13.096;2024-01-15T10:29:37;6.37;;;4.30;;
8663;SDS011;4369;47.842;13.096;2024-01-15T10:32:06;6.77;;;4.60;;
8663;SDS011;4369;47.842;13.096;2024-01-15T10:34:34;9.30;;;5.20;;
8663;SDS011;4369;47.842;13.096;2024-01-15T10:37:06;7.27;;;4.67;;
8663;SDS011;4369;47.842;13.096;2024-01-15T10:39:33;10.37;;;5.23;;
8663;SDS011;4369;47.842;13.096;2024-01-15T10:42:01;7.70;;;4.90;;
8663;SDS011;4369;47.842;13.096;2024-01-15T10:44:30;9.43;;;4.87;;
8663;SDS011;4369;47.842;13.096;2024-01-15T10:46:57;9.53;;;4.67;;
8663;SDS011;4369;47.842;13.096;2024-01-15T10:49:24;8.77;;;4.83;;
8663;SDS011;4369;47.842;13.096;2024-01-15T10:51:53;6.20;;;4.53;;
8663;SDS011;4369;47.842;13.096;2024-01-15T10:54:20;8.60;;;5.10;;
8663;SDS011;4369;47.842;13.096;2024-01-15T10:56:49;10.27;;;6.40;;
8663;SDS011;4369;47.842;13.096;2024-01-15T10:59:18;9.67;;;5.23;;
8663;SDS011;4369;47.842;13.096;2024-01-15T11:01:47;9.67;;;5.63;;
8663;SDS011;4369;47.842;13.096;2024-01-15T11:04:15;17.30;;;6.10;;
8663;SDS011;4369;47.842;13.096;2024-01-15T11:06:44;8.67;;;5.27;;
8663;SDS011;4369;47.842;13.096;2024-01-15T11:09:12;9.87;;;5.30;;
8663;SDS011;4369;47.842;13.096;2024-01-15T11:11:40;9.50;;;4.90;;
8663;SDS011;4369;47.842;13.096;2024-01-15T11:14:09;8.40;;;5.57;;
8663;SDS011;4369;47.842;13.096;2024-01-15T11:16:55;8.77;;;4.60;;
8663;SDS011;4369;47.842;13.096;2024-01-15T11:19:24;5.97;;;4.40;;
8663;SDS011;4369;47.842;13.096;2024-01-15T11:21:52;6.57;;;4.50;;
8663;SDS011;4369;47.842;13.096;2024-01-15T11:24:35;7.20;;;4.20;;
8663;SDS011;4369;47.842;13.096;2024-01-15T11:27:03;6.40;;;4.43;;
8663;SDS011;4369;47.842;13.096;2024-01-15T11:29:31;3.77;;;3.20;;
8663;SDS011;4369;47.842;13.096;2024-01-15T11:32:02;4.77;;;3.63;;
8663;SDS011;4369;47.842;13.096;2024-01-15T11:34:50;4.70;;;3.37;;
8663;SDS011;4369;47.842;13.096;2024-01-15T11:37:23;5.43;;;3.30;;
8663;SDS011;4369;47.842;13.096;2024-01-15T11:39:51;4.33;;;3.00;;
8663;SDS011;4369;47.842;13.096;2024-01-15T11:42:19;5.53;;;3.27;;
8663;SDS011;4369;47.842;13.096;2024-01-15T11:44:47;5.87;;;3.40;;
8663;SDS011;4369;47.842;13.096;2024-01-15T11:47:16;3.73;;;3.17;;
8663;SDS011;4369;47.842;13.096;2024-01-15T11:50:09;3.93;;;2.90;;
8663;SDS011;4369;47.842;13.096;2024-01-15T11:52:37;8.47;;;3.90;;
8663;SDS011;4369;47.842;13.096;2024-01-15T11:55:08;5.37;;;4.10;;
8663;SDS011;4369;47.842;13.096;2024-01-15T11:57:42;9.03;;;4.00;;
8663;SDS011;4369;47.842;13.096;2024-01-15T12:00:12;5.97;;;4.00;;
8663;SDS011;4369;47.842;13.096;2024-01-15T12:02:42;5.77;;;3.67;;
8663;SDS011;4369;47.842;13.096;2024-01-15T12:05:10;5.40;;;3.67;;
8663;SDS011;4369;47.842;13.096;2024-01-15T12:07:38;5.87;;;4.17;;
8663;SDS011;4369;47.842;13.096;2024-01-15T12:10:08;6.47;;;4.10;;
8663;SDS011;4369;47.842;13.096;2024-01-15T12:12:41;5.83;;;4.20;;
8663;SDS011;4369;47.842;13.096;2024-01-15T12:15:20;6.57;;;4.13;;
8663;SDS011;4369;47.842;13.096;2024-01-15T12:17:48;5.93;;;3.87;;
8663;SDS011;4369;47.842;13.096;2024-01-15T12:20:16;6.83;;;3.70;;
8663;SDS011;4369;47.842;13.096;2024-01-15T12:22:44;4.50;;;3.03;;
8663;SDS011;4369;47.842;13.096;2024-01-15T12:25:11;5.47;;;3.50;;
8663;SDS011;4369;47.842;13.096;2024-01-15T12:27:38;4.33;;;3.73;;
8663;SDS011;4369;47.842;13.096;2024-01-15T12:30:05;2.67;;;2.47;;
8663;SDS011;4369;47.842;13.096;2024-01-15T12:32:34;6.70;;;3.23;;
8663;SDS011;4369;47.842;13.096;2024-01-15T12:35:03;4.67;;;3.20;;
8663;SDS011;4369;47.842;13.096;2024-01-15T12:37:31;4.83;;;3.37;;
8663;SDS011;4369;47.842;13.096;2024-01-15T12:39:58;4.10;;;2.80;;
8663;SDS011;4369;47.842;13.096;2024-01-15T12:42:25;4.33;;;3.17;;
8663;SDS011;4369;47.842;13.096;2024-01-15T12:44:55;4.43;;;2.73;;
8663;SDS011;4369;47.842;13.096;2024-01-15T12:47:22;3.93;;;2.93;;
8663;SDS011;4369;47.842;13.096;2024-01-15T12:49:51;4.83;;;2.93;;
8663;SDS011;4369;47.842;13.096;2024-01-15T12:52:21;3.40;;;3.10;;
8663;SDS011;4369;47.842;13.096;2024-01-15T12:54:48;4.03;;;3.17;;
8663;SDS011;4369;47.842;13.096;2024-01-15T12:57:15;5.27;;;3.47;;
8663;SDS011;4369;47.842;13.096;2024-01-15T12:59:42;4.07;;;3.17;;
8663;SDS011;4369;47.842;13.096;2024-01-15T13:02:10;4.33;;;3.67;;
8663;SDS011;4369;47.842;13.096;2024-01-15T13:04:37;5.17;;;3.60;;
8663;SDS011;4369;47.842;13.096;2024-01-15T13:07:04;3.70;;;3.40;;
8663;SDS011;4369;47.842;13.096;2024-01-15T13:09:33;5.63;;;4.30;;
8663;SDS011;4369;47.842;13.096;2024-01-15T13:12:01;7.60;;;3.77;;
8663;SDS011;4369;47.842;13.096;2024-01-15T13:14:28;4.87;;;3.30;;
8663;SDS011;4369;47.842;13.096;2024-01-15T13:16:55;4.07;;;3.50;;
8663;SDS011;4369;47.842;13.096;2024-01-15T13:19:23;5.83;;;3.23;;
8663;SDS011;4369;47.842;13.096;2024-01-15T13:21:50;4.33;;;3.43;;
8663;SDS011;4369;47.842;13.096;2024-01-15T13:24:18;4.77;;;3.63;;
8663;SDS011;4369;47.842;13.096;2024-01-15T13:26:47;4.20;;;3.20;;
8663;SDS011;4369;47.842;13.096;2024-01-15T13:29:14;4.43;;;3.60;;
8663;SDS011;4369;47.842;13.096;2024-01-15T13:31:41;3.67;;;3.30;;
8663;SDS011;4369;47.842;13.096;2024-01-15T13:34:09;5.17;;;3.80;;
8663;SDS011;4369;47.842;13.096;2024-01-15T13:36:36;5.37;;;3.50;;
8663;SDS011;4369;47.842;13.096;2024-01-15T13:39:04;4.43;;;3.30;;
8663;SDS011;4369;47.842;13.096;2024-01-15T13:41:34;5.33;;;3.70;;
8663;SDS011;4369;47.842;13.096;2024-01-15T13:44:03;6.50;;;4.70;;
8663;SDS011;4369;47.842;13.096;2024-01-15T13:46:30;7.63;;;4.93;;
8663;SDS011;4369;47.842;13.096;2024-01-15T13:48:57;6.03;;;4.00;;
8663;SDS011;4369;47.842;13.096;2024-01-15T13:51:24;6.33;;;4.30;;
8663;SDS011;4369;47.842;13.096;2024-01-15T13:53:51;4.30;;;3.90;;
8663;SDS011;4369;47.842;13.096;2024-01-15T13:56:19;5.20;;;3.77;;
8663;SDS011;4369;47.842;13.096;2024-01-15T13:58:46;5.73;;;4.40;;
8663;SDS011;4369;47.842;13.096;2024-01-15T14:01:16;3.90;;;3.50;;
8663;SDS011;4369;47.842;13.096;2024-01-15T14:03:43;3.33;;;2.60;;
8663;SDS011;4369;47.842;13.096;2024-01-15T14:06:10;4.50;;;3.27;;
8663;SDS011;4369;47.842;13.096;2024-01-15T14:08:37;3.40;;;2.50;;
8663;SDS011;4369;47.842;13.096;2024-01-15T14:11:04;3.73;;;2.60;;
8663;SDS011;4369;47.842;13.096;2024-01-15T14:13:32;5.23;;;2.60;;
8663;SDS011;4369;47.842;13.096;2024-01-15T14:15:59;4.87;;;3.17;;
8663;SDS011;4369;47.842;13.096;2024-01-15T14:18:27;3.20;;;2.90;;
8663;SDS011;4369;47.842;13.096;2024-01-15T14:20:54;3.10;;;2.80;;
8663;SDS011;4369;47.842;13.096;2024-01-15T14:23:21;3.80;;;3.00;;
8663;SDS011;4369;47.842;13.096;2024-01-15T14:25:48;3.03;;;2.63;;
8663;SDS011;4369;47.842;13.096;2024-01-15T14:28:15;3.30;;;3.00;;
8663;SDS011;4369;47.842;13.096;2024-01-15T14:30:42;5.30;;;2.97;;
8663;SDS011;4369;47.842;13.096;2024-01-15T14:33:09;2.40;;;2.10;;
8663;SDS011;4369;47.842;13.096;2024-01-15T14:35:38;2.63;;;2.43;;
8663;SDS011;4369;47.842;13.096;2024-01-15T14:38:05;6.73;;;4.00;;
8663;SDS011;4369;47.842;13.096;2024-01-15T14:40:32;15.83;;;7.30;;
8663;SDS011;4369;47.842;13.096;2024-01-15T14:43:00;6.73;;;4.70;;
8663;SDS011;4369;47.842;13.096;2024-01-15T14:45:28;10.83;;;5.50;;
8663;SDS011;4369;47.842;13.096;2024-01-15T14:47:55;8.00;;;4.83;;
8663;SDS011;4369;47.842;13.096;2024-01-15T14:50:23;8.00;;;5.00;;
8663;SDS011;4369;47.842;13.096;2024-01-15T14:52:51;4.30;;;3.20;;
8663;SDS011;4369;47.842;13.096;2024-01-15T14:55:19;3.40;;;2.70;;
8663;SDS011;4369;47.842;13.096;2024-01-15T14:57:48;4.70;;;3.40;;
8663;SDS011;4369;47.842;13.096;2024-01-15T15:00:15;4.90;;;3.47;;